Nearby METAR Reports

 

TNCA - Queen Beatrix, Lesser Antilles
Distance from station: 0 0km
Updated: 17/11/2017 22:00
Few Clouds
Few Clouds
 Wind from varies
Wind: varies 4 km/h
Temperature: 26°C
Dew Point: 25°C
Humidity: 94%
Barometer: 1009 hPa
Clouds: Few Clouds
Visibility: 10 km
Cloud details: Few Clouds 518 m
2017/11/18 02:00 TNCA 180200Z VRB02KT 9999 FEW017 26/25 Q1009 A2982 NOSIG
SVJC - Paraguana/Josefa, Venezuela
Distance from station: S 83km
Updated: 20/09/2017 14:00
NOT Current
Mostly Cloudy
Mostly Cloudy
 Wind from NNW
Wind: NNW 28 km/h
Clouds: Mostly Cloudy
Visibility: 10 km
Cloud details: Mostly Cloudy 1829 m
2017/09/20 18:00 SVJC 201800Z 33015KT 9999 BKN060CB XX/XX Q1008
 
TNCC - Hato Air Curacao, Lesser Antilles
Distance from station: ESE 117km
Updated: 17/11/2017 22:00
Few Clouds
Few Clouds
 Wind from ENE
Wind: ENE 9 km/h
Temperature: 28°C
Heat Index: 32°C
Dew Point: 25°C
Humidity: 84%
Barometer: 1010 hPa
Clouds: Few Clouds
Visibility: 10 km
Cloud details: Few Clouds 518 m
2017/11/18 02:00 TNCC 180200Z 06005KT 9999 FEW017 28/25 Q1010 NOSIG
SVCR - Coro/Jose Leonar, Venezuela
Distance from station: SSE 126km
Updated: 20/09/2017 14:00
NOT Current
Clear
Clear
 Wind from E
Wind: E 19 km/h
Summary: Clear
Visibility: greater than 10 km
2017/09/20 18:00 SVCR 201800Z 08010KT CAVOK XX/XX Q1009
 
TNCB - Bonaire/Flamingo, Lesser Antilles
Distance from station: ESE 191km
Updated: 17/11/2017 21:55
Partly Cloudy
Partly Cloudy
 Wind from ENE
Wind: ENE 7 km/h
Temperature: 28°C
Heat Index: 32°C
Dew Point: 25°C
Humidity: 84%
Barometer: 1009 hPa
Clouds: Partly Cloudy
Visibility: 10 km
2017/11/18 01:55 TNCB 180155Z AUTO 07004KT 9999 NSC 28/25 Q1009
SVMC - Maracaibo/La Chi, Venezuela
Distance from station: SW 285km
Updated: 11/11/2017 07:00
NOT Current
Partly Cloudy
Partly Cloudy
 Wind from N
Wind: N 2 km/h
Temperature: 24°C
Dew Point: 24°C
Humidity: 100%
Barometer: 1008 hPa
Clouds: Partly Cloudy
Visibility: 10 km
Cloud details: Partly Cloudy 396 m
2017/11/11 11:00 SVMC 111100Z 36001KT 9999 SCT013 24/24 Q1008